sensor_id;sensor_type;location;lat;lon;timestamp;P1;durP1;ratioP1;P2;durP2;ratioP2
17347;SDS011;8791;50.876;4.342;2023-02-22T00:00:18;227.87;;;42.20;;
17347;SDS011;8791;50.876;4.342;2023-02-22T00:02:53;276.37;;;41.37;;
17347;SDS011;8791;50.876;4.342;2023-02-22T00:05:24;338.20;;;45.33;;
17347;SDS011;8791;50.876;4.342;2023-02-22T00:07:53;177.17;;;41.17;;
17347;SDS011;8791;50.876;4.342;2023-02-22T00:10:22;309.07;;;44.63;;
17347;SDS011;8791;50.876;4.342;2023-02-22T00:12:50;288.43;;;43.20;;
17347;SDS011;8791;50.876;4.342;2023-02-22T00:15:19;232.93;;;42.10;;
17347;SDS011;8791;50.876;4.342;2023-02-22T00:17:47;167.57;;;41.37;;
17347;SDS011;8791;50.876;4.342;2023-02-22T00:20:14;257.53;;;43.73;;
17347;SDS011;8791;50.876;4.342;2023-02-22T00:22:43;248.63;;;43.00;;
17347;SDS011;8791;50.876;4.342;2023-02-22T00:25:14;339.00;;;44.73;;
17347;SDS011;8791;50.876;4.342;2023-02-22T00:27:42;341.00;;;47.40;;
17347;SDS011;8791;50.876;4.342;2023-02-22T00:30:09;207.23;;;42.20;;
17347;SDS011;8791;50.876;4.342;2023-02-22T00:32:43;218.70;;;42.77;;
17347;SDS011;8791;50.876;4.342;2023-02-22T00:35:10;269.73;;;46.10;;
17347;SDS011;8791;50.876;4.342;2023-02-22T00:37:37;234.77;;;45.80;;
17347;SDS011;8791;50.876;4.342;2023-02-22T00:40:06;206.77;;;43.17;;
17347;SDS011;8791;50.876;4.342;2023-02-22T00:42:35;327.40;;;45.50;;
17347;SDS011;8791;50.876;4.342;2023-02-22T00:45:02;478.90;;;49.50;;
17347;SDS011;8791;50.876;4.342;2023-02-22T00:47:30;289.17;;;46.37;;
17347;SDS011;8791;50.876;4.342;2023-02-22T00:49:57;215.70;;;42.50;;
17347;SDS011;8791;50.876;4.342;2023-02-22T00:52:24;252.27;;;44.73;;
17347;SDS011;8791;50.876;4.342;2023-02-22T00:54:51;254.97;;;43.60;;
17347;SDS011;8791;50.876;4.342;2023-02-22T00:57:18;273.47;;;42.67;;
17347;SDS011;8791;50.876;4.342;2023-02-22T00:59:46;224.43;;;44.00;;
17347;SDS011;8791;50.876;4.342;2023-02-22T01:02:13;250.23;;;44.07;;
17347;SDS011;8791;50.876;4.342;2023-02-22T01:04:40;435.63;;;49.30;;
17347;SDS011;8791;50.876;4.342;2023-02-22T01:07:07;553.93;;;53.80;;
17347;SDS011;8791;50.876;4.342;2023-02-22T01:09:34;219.10;;;42.27;;
17347;SDS011;8791;50.876;4.342;2023-02-22T01:12:03;386.40;;;49.90;;
17347;SDS011;8791;50.876;4.342;2023-02-22T01:14:32;233.50;;;45.07;;
17347;SDS011;8791;50.876;4.342;2023-02-22T01:17:00;231.93;;;44.10;;
17347;SDS011;8791;50.876;4.342;2023-02-22T01:19:27;459.57;;;50.53;;
17347;SDS011;8791;50.876;4.342;2023-02-22T01:21:54;379.47;;;46.07;;
17347;SDS011;8791;50.876;4.342;2023-02-22T01:24:20;248.60;;;41.03;;
17347;SDS011;8791;50.876;4.342;2023-02-22T01:26:48;451.30;;;49.77;;
17347;SDS011;8791;50.876;4.342;2023-02-22T01:29:17;280.90;;;43.53;;
17347;SDS011;8791;50.876;4.342;2023-02-22T01:31:49;306.43;;;45.30;;
17347;SDS011;8791;50.876;4.342;2023-02-22T01:34:20;320.80;;;47.43;;
17347;SDS011;8791;50.876;4.342;2023-02-22T01:36:47;237.47;;;44.53;;
17347;SDS011;8791;50.876;4.342;2023-02-22T01:39:14;340.00;;;46.80;;
17347;SDS011;8791;50.876;4.342;2023-02-22T01:41:42;218.30;;;41.33;;
17347;SDS011;8791;50.876;4.342;2023-02-22T01:46:55;182.63;;;43.87;;
17347;SDS011;8791;50.876;4.342;2023-02-22T01:49:25;344.23;;;46.60;;
17347;SDS011;8791;50.876;4.342;2023-02-22T01:51:56;162.23;;;41.43;;
17347;SDS011;8791;50.876;4.342;2023-02-22T01:54:26;230.23;;;41.70;;
17347;SDS011;8791;50.876;4.342;2023-02-22T01:57:00;173.63;;;40.57;;
17347;SDS011;8791;50.876;4.342;2023-02-22T01:59:32;152.60;;;37.83;;
17347;SDS011;8791;50.876;4.342;2023-02-22T02:02:01;131.53;;;39.00;;
17347;SDS011;8791;50.876;4.342;2023-02-22T02:04:30;138.73;;;40.23;;
17347;SDS011;8791;50.876;4.342;2023-02-22T02:06:59;182.80;;;41.07;;
17347;SDS011;8791;50.876;4.342;2023-02-22T02:09:31;144.77;;;40.47;;
17347;SDS011;8791;50.876;4.342;2023-02-22T02:12:01;122.60;;;37.87;;
17347;SDS011;8791;50.876;4.342;2023-02-22T02:14:30;125.17;;;38.43;;
17347;SDS011;8791;50.876;4.342;2023-02-22T02:16:58;135.70;;;39.37;;
17347;SDS011;8791;50.876;4.342;2023-02-22T02:19:29;149.73;;;40.67;;
17347;SDS011;8791;50.876;4.342;2023-02-22T02:22:12;119.37;;;38.67;;
17347;SDS011;8791;50.876;4.342;2023-02-22T02:25:15;119.60;;;39.17;;
17347;SDS011;8791;50.876;4.342;2023-02-22T02:31:14;132.60;;;40.00;;
17347;SDS011;8791;50.876;4.342;2023-02-22T02:34:01;125.93;;;38.90;;
17347;SDS011;8791;50.876;4.342;2023-02-22T02:36:33;114.53;;;37.63;;
17347;SDS011;8791;50.876;4.342;2023-02-22T02:39:05;108.90;;;36.90;;
17347;SDS011;8791;50.876;4.342;2023-02-22T02:41:39;105.87;;;34.80;;
17347;SDS011;8791;50.876;4.342;2023-02-22T02:44:11;101.90;;;35.97;;
17347;SDS011;8791;50.876;4.342;2023-02-22T02:46:43;98.17;;;33.73;;
17347;SDS011;8791;50.876;4.342;2023-02-22T02:49:17;99.13;;;34.07;;
17347;SDS011;8791;50.876;4.342;2023-02-22T02:51:49;90.83;;;33.87;;
17347;SDS011;8791;50.876;4.342;2023-02-22T02:54:19;99.17;;;35.33;;
17347;SDS011;8791;50.876;4.342;2023-02-22T02:56:47;99.77;;;34.73;;
17347;SDS011;8791;50.876;4.342;2023-02-22T02:59:23;100.53;;;32.83;;
17347;SDS011;8791;50.876;4.342;2023-02-22T03:01:55;90.10;;;31.97;;
17347;SDS011;8791;50.876;4.342;2023-02-22T03:04:36;91.07;;;32.07;;
17347;SDS011;8791;50.876;4.342;2023-02-22T03:07:23;77.70;;;30.90;;
17347;SDS011;8791;50.876;4.342;2023-02-22T03:10:02;74.90;;;30.33;;
17347;SDS011;8791;50.876;4.342;2023-02-22T03:12:44;80.60;;;29.60;;
17347;SDS011;8791;50.876;4.342;2023-02-22T03:15:18;78.57;;;29.23;;
17347;SDS011;8791;50.876;4.342;2023-02-22T03:17:53;74.80;;;28.90;;
17347;SDS011;8791;50.876;4.342;2023-02-22T03:20:31;70.17;;;29.80;;
17347;SDS011;8791;50.876;4.342;2023-02-22T03:23:09;73.50;;;29.50;;
17347;SDS011;8791;50.876;4.342;2023-02-22T03:25:41;71.60;;;28.30;;
17347;SDS011;8791;50.876;4.342;2023-02-22T03:28:12;66.27;;;29.07;;
17347;SDS011;8791;50.876;4.342;2023-02-22T03:30:43;60.23;;;26.87;;
17347;SDS011;8791;50.876;4.342;2023-02-22T03:33:15;61.90;;;27.93;;
17347;SDS011;8791;50.876;4.342;2023-02-22T03:35:48;58.03;;;27.50;;
17347;SDS011;8791;50.876;4.342;2023-02-22T03:38:21;66.30;;;27.43;;
17347;SDS011;8791;50.876;4.342;2023-02-22T03:40:53;62.50;;;26.90;;
17347;SDS011;8791;50.876;4.342;2023-02-22T03:43:24;65.90;;;27.80;;
17347;SDS011;8791;50.876;4.342;2023-02-22T03:45:56;65.17;;;26.13;;
17347;SDS011;8791;50.876;4.342;2023-02-22T03:48:29;58.27;;;26.30;;
17347;SDS011;8791;50.876;4.342;2023-02-22T03:51:02;61.77;;;25.93;;
17347;SDS011;8791;50.876;4.342;2023-02-22T03:53:30;57.57;;;25.27;;
17347;SDS011;8791;50.876;4.342;2023-02-22T03:56:01;58.97;;;25.80;;
17347;SDS011;8791;50.876;4.342;2023-02-22T03:58:31;56.60;;;24.40;;
17347;SDS011;8791;50.876;4.342;2023-02-22T04:01:01;53.50;;;25.23;;
17347;SDS011;8791;50.876;4.342;2023-02-22T04:03:29;58.27;;;25.07;;
17347;SDS011;8791;50.876;4.342;2023-02-22T04:05:55;58.87;;;25.13;;
17347;SDS011;8791;50.876;4.342;2023-02-22T04:08:24;48.37;;;23.40;;
17347;SDS011;8791;50.876;4.342;2023-02-22T04:10:51;49.77;;;23.03;;
17347;SDS011;8791;50.876;4.342;2023-02-22T04:13:17;51.87;;;23.00;;
17347;SDS011;8791;50.876;4.342;2023-02-22T04:15:44;49.03;;;22.30;;
17347;SDS011;8791;50.876;4.342;2023-02-22T04:18:11;47.57;;;22.70;;
17347;SDS011;8791;50.876;4.342;2023-02-22T04:20:39;41.97;;;21.90;;
17347;SDS011;8791;50.876;4.342;2023-02-22T04:23:05;40.13;;;21.77;;
17347;SDS011;8791;50.876;4.342;2023-02-22T04:25:34;47.37;;;21.27;;
17347;SDS011;8791;50.876;4.342;2023-02-22T04:28:00;43.43;;;20.67;;
17347;SDS011;8791;50.876;4.342;2023-02-22T04:30:27;38.07;;;20.00;;
17347;SDS011;8791;50.876;4.342;2023-02-22T04:32:54;42.60;;;20.97;;
17347;SDS011;8791;50.876;4.342;2023-02-22T04:35:22;42.33;;;20.70;;
17347;SDS011;8791;50.876;4.342;2023-02-22T04:37:49;40.77;;;21.03;;
17347;SDS011;8791;50.876;4.342;2023-02-22T04:40:16;37.53;;;20.17;;
17347;SDS011;8791;50.876;4.342;2023-02-22T04:42:45;37.80;;;19.13;;
17347;SDS011;8791;50.876;4.342;2023-02-22T04:45:11;35.90;;;20.03;;
17347;SDS011;8791;50.876;4.342;2023-02-22T04:47:38;38.10;;;19.73;;
17347;SDS011;8791;50.876;4.342;2023-02-22T04:50:06;36.80;;;19.20;;
17347;SDS011;8791;50.876;4.342;2023-02-22T04:52:33;36.50;;;19.50;;
17347;SDS011;8791;50.876;4.342;2023-02-22T04:55:00;43.23;;;19.20;;
17347;SDS011;8791;50.876;4.342;2023-02-22T04:57:28;37.77;;;20.27;;
17347;SDS011;8791;50.876;4.342;2023-02-22T04:59:57;30.30;;;17.93;;
17347;SDS011;8791;50.876;4.342;2023-02-22T05:02:23;36.70;;;18.43;;
17347;SDS011;8791;50.876;4.342;2023-02-22T05:04:51;34.03;;;18.60;;
17347;SDS011;8791;50.876;4.342;2023-02-22T05:07:18;32.83;;;17.37;;
17347;SDS011;8791;50.876;4.342;2023-02-22T05:09:44;31.57;;;18.00;;
17347;SDS011;8791;50.876;4.342;2023-02-22T05:12:11;29.93;;;17.97;;
17347;SDS011;8791;50.876;4.342;2023-02-22T05:14:39;30.90;;;16.23;;
17347;SDS011;8791;50.876;4.342;2023-02-22T05:17:07;31.83;;;17.40;;
17347;SDS011;8791;50.876;4.342;2023-02-22T05:19:34;29.67;;;16.87;;
17347;SDS011;8791;50.876;4.342;2023-02-22T05:22:01;28.17;;;16.23;;
17347;SDS011;8791;50.876;4.342;2023-02-22T05:24:29;28.80;;;15.87;;
17347;SDS011;8791;50.876;4.342;2023-02-22T05:26:56;29.40;;;16.83;;
17347;SDS011;8791;50.876;4.342;2023-02-22T05:29:23;25.33;;;15.37;;
17347;SDS011;8791;50.876;4.342;2023-02-22T05:31:50;29.17;;;16.50;;
17347;SDS011;8791;50.876;4.342;2023-02-22T05:34:18;24.87;;;15.00;;
17347;SDS011;8791;50.876;4.342;2023-02-22T05:36:45;23.70;;;14.80;;
17347;SDS011;8791;50.876;4.342;2023-02-22T05:39:11;29.93;;;15.13;;
17347;SDS011;8791;50.876;4.342;2023-02-22T05:41:38;29.33;;;15.90;;
17347;SDS011;8791;50.876;4.342;2023-02-22T05:44:05;24.70;;;15.47;;
17347;SDS011;8791;50.876;4.342;2023-02-22T05:46:32;28.17;;;14.77;;
17347;SDS011;8791;50.876;4.342;2023-02-22T05:48:59;28.47;;;14.87;;
17347;SDS011;8791;50.876;4.342;2023-02-22T05:51:27;23.83;;;14.60;;
17347;SDS011;8791;50.876;4.342;2023-02-22T05:53:54;23.37;;;13.97;;
17347;SDS011;8791;50.876;4.342;2023-02-22T05:56:21;24.60;;;14.63;;
17347;SDS011;8791;50.876;4.342;2023-02-22T05:58:50;30.40;;;15.27;;
17347;SDS011;8791;50.876;4.342;2023-02-22T06:01:16;25.10;;;14.40;;
17347;SDS011;8791;50.876;4.342;2023-02-22T06:03:45;20.13;;;13.30;;
17347;SDS011;8791;50.876;4.342;2023-02-22T06:06:12;21.53;;;13.70;;
17347;SDS011;8791;50.876;4.342;2023-02-22T06:08:41;18.90;;;13.50;;
17347;SDS011;8791;50.876;4.342;2023-02-22T06:11:08;26.93;;;12.63;;
17347;SDS011;8791;50.876;4.342;2023-02-22T06:13:36;24.63;;;14.03;;
17347;SDS011;8791;50.876;4.342;2023-02-22T06:16:03;21.10;;;13.03;;
17347;SDS011;8791;50.876;4.342;2023-02-22T06:18:30;25.97;;;14.20;;
17347;SDS011;8791;50.876;4.342;2023-02-22T06:20:58;22.77;;;13.20;;
17347;SDS011;8791;50.876;4.342;2023-02-22T06:23:25;18.60;;;12.83;;
17347;SDS011;8791;50.876;4.342;2023-02-22T06:25:54;19.87;;;12.83;;
17347;SDS011;8791;50.876;4.342;2023-02-22T06:28:20;20.60;;;12.40;;
17347;SDS011;8791;50.876;4.342;2023-02-22T06:30:47;15.00;;;11.53;;
17347;SDS011;8791;50.876;4.342;2023-02-22T06:33:14;28.63;;;13.00;;
17347;SDS011;8791;50.876;4.342;2023-02-22T06:35:41;24.90;;;12.27;;
17347;SDS011;8791;50.876;4.342;2023-02-22T06:38:09;19.13;;;12.57;;
17347;SDS011;8791;50.876;4.342;2023-02-22T06:40:36;22.90;;;12.67;;
17347;SDS011;8791;50.876;4.342;2023-02-22T06:43:04;25.10;;;11.70;;
17347;SDS011;8791;50.876;4.342;2023-02-22T06:45:31;31.00;;;12.80;;
17347;SDS011;8791;50.876;4.342;2023-02-22T06:47:57;20.63;;;12.73;;
17347;SDS011;8791;50.876;4.342;2023-02-22T06:50:25;21.37;;;12.33;;
17347;SDS011;8791;50.876;4.342;2023-02-22T06:52:53;19.67;;;12.73;;
17347;SDS011;8791;50.876;4.342;2023-02-22T06:55:21;27.30;;;11.97;;
17347;SDS011;8791;50.876;4.342;2023-02-22T06:57:49;23.57;;;11.93;;
17347;SDS011;8791;50.876;4.342;2023-02-22T07:00:19;24.33;;;12.43;;
17347;SDS011;8791;50.876;4.342;2023-02-22T07:02:48;27.30;;;12.30;;
17347;SDS011;8791;50.876;4.342;2023-02-22T07:05:15;26.63;;;12.97;;
17347;SDS011;8791;50.876;4.342;2023-02-22T07:07:43;31.37;;;13.30;;
17347;SDS011;8791;50.876;4.342;2023-02-22T07:10:15;23.97;;;13.13;;
17347;SDS011;8791;50.876;4.342;2023-02-22T07:12:43;22.97;;;12.60;;
17347;SDS011;8791;50.876;4.342;2023-02-22T07:15:10;26.83;;;12.23;;
17347;SDS011;8791;50.876;4.342;2023-02-22T07:17:39;19.03;;;11.37;;
17347;SDS011;8791;50.876;4.342;2023-02-22T07:20:06;33.23;;;13.07;;
17347;SDS011;8791;50.876;4.342;2023-02-22T07:22:35;23.90;;;12.97;;
17347;SDS011;8791;50.876;4.342;2023-02-22T07:25:02;22.67;;;12.27;;
17347;SDS011;8791;50.876;4.342;2023-02-22T07:27:29;42.70;;;13.90;;
17347;SDS011;8791;50.876;4.342;2023-02-22T07:29:56;23.57;;;12.73;;
17347;SDS011;8791;50.876;4.342;2023-02-22T07:32:23;23.97;;;11.37;;
17347;SDS011;8791;50.876;4.342;2023-02-22T07:34:51;22.90;;;10.83;;
17347;SDS011;8791;50.876;4.342;2023-02-22T07:37:18;22.87;;;12.70;;
17347;SDS011;8791;50.876;4.342;2023-02-22T07:39:45;20.70;;;11.60;;
17347;SDS011;8791;50.876;4.342;2023-02-22T07:42:12;27.97;;;11.80;;
17347;SDS011;8791;50.876;4.342;2023-02-22T07:44:38;28.03;;;12.70;;
17347;SDS011;8791;50.876;4.342;2023-02-22T07:47:05;22.80;;;11.43;;
17347;SDS011;8791;50.876;4.342;2023-02-22T07:49:33;19.07;;;11.37;;
17347;SDS011;8791;50.876;4.342;2023-02-22T07:52:01;22.03;;;11.90;;
17347;SDS011;8791;50.876;4.342;2023-02-22T07:54:27;27.67;;;12.37;;
17347;SDS011;8791;50.876;4.342;2023-02-22T07:56:54;27.27;;;12.40;;
17347;SDS011;8791;50.876;4.342;2023-02-22T07:59:21;22.70;;;12.03;;
17347;SDS011;8791;50.876;4.342;2023-02-22T08:01:48;28.07;;;13.13;;
17347;SDS011;8791;50.876;4.342;2023-02-22T08:04:15;22.07;;;12.60;;
17347;SDS011;8791;50.876;4.342;2023-02-22T08:06:42;22.03;;;13.07;;
17347;SDS011;8791;50.876;4.342;2023-02-22T08:09:11;28.60;;;13.60;;
17347;SDS011;8791;50.876;4.342;2023-02-22T08:11:38;31.90;;;12.93;;
17347;SDS011;8791;50.876;4.342;2023-02-22T08:14:05;32.07;;;13.77;;
17347;SDS011;8791;50.876;4.342;2023-02-22T08:16:32;25.83;;;14.20;;
17347;SDS011;8791;50.876;4.342;2023-02-22T08:18:59;34.83;;;13.90;;
17347;SDS011;8791;50.876;4.342;2023-02-22T08:21:26;30.07;;;13.37;;
17347;SDS011;8791;50.876;4.342;2023-02-22T08:23:54;27.87;;;13.40;;
17347;SDS011;8791;50.876;4.342;2023-02-22T08:26:22;30.43;;;13.60;;
17347;SDS011;8791;50.876;4.342;2023-02-22T08:28:49;27.87;;;13.17;;
17347;SDS011;8791;50.876;4.342;2023-02-22T08:31:16;21.77;;;12.27;;
17347;SDS011;8791;50.876;4.342;2023-02-22T08:33:45;25.00;;;12.93;;
17347;SDS011;8791;50.876;4.342;2023-02-22T08:36:12;37.80;;;11.43;;
17347;SDS011;8791;50.876;4.342;2023-02-22T08:38:40;28.60;;;11.63;;
17347;SDS011;8791;50.876;4.342;2023-02-22T08:41:07;25.20;;;12.43;;
17347;SDS011;8791;50.876;4.342;2023-02-22T08:43:35;31.43;;;11.77;;
17347;SDS011;8791;50.876;4.342;2023-02-22T08:46:02;31.67;;;12.03;;
17347;SDS011;8791;50.876;4.342;2023-02-22T08:48:28;26.00;;;10.80;;
17347;SDS011;8791;50.876;4.342;2023-02-22T08:50:55;38.13;;;11.37;;
17347;SDS011;8791;50.876;4.342;2023-02-22T08:53:22;34.37;;;12.20;;
17347;SDS011;8791;50.876;4.342;2023-02-22T08:55:49;18.67;;;11.13;;
17347;SDS011;8791;50.876;4.342;2023-02-22T08:58:16;24.27;;;11.50;;
17347;SDS011;8791;50.876;4.342;2023-02-22T09:00:44;24.60;;;11.67;;
17347;SDS011;8791;50.876;4.342;2023-02-22T09:03:11;20.27;;;10.97;;
17347;SDS011;8791;50.876;4.342;2023-02-22T09:05:39;25.10;;;12.23;;
17347;SDS011;8791;50.876;4.342;2023-02-22T09:08:06;23.93;;;11.57;;
17347;SDS011;8791;50.876;4.342;2023-02-22T09:10:33;27.87;;;11.90;;
17347;SDS011;8791;50.876;4.342;2023-02-22T09:13:01;22.70;;;11.67;;
17347;SDS011;8791;50.876;4.342;2023-02-22T09:15:28;23.63;;;11.80;;
17347;SDS011;8791;50.876;4.342;2023-02-22T09:17:57;27.67;;;11.20;;
17347;SDS011;8791;50.876;4.342;2023-02-22T09:20:25;29.53;;;11.80;;
17347;SDS011;8791;50.876;4.342;2023-02-22T09:22:52;24.30;;;11.70;;
17347;SDS011;8791;50.876;4.342;2023-02-22T09:25:20;21.83;;;11.50;;
17347;SDS011;8791;50.876;4.342;2023-02-22T09:27:47;25.30;;;12.00;;
17347;SDS011;8791;50.876;4.342;2023-02-22T09:30:16;17.13;;;12.53;;
17347;SDS011;8791;50.876;4.342;2023-02-22T09:32:47;33.40;;;12.30;;
17347;SDS011;8791;50.876;4.342;2023-02-22T09:35:16;24.33;;;11.63;;
17347;SDS011;8791;50.876;4.342;2023-02-22T09:37:43;17.97;;;11.67;;
17347;SDS011;8791;50.876;4.342;2023-02-22T09:40:14;32.03;;;12.97;;
17347;SDS011;8791;50.876;4.342;2023-02-22T09:42:51;20.60;;;11.97;;
17347;SDS011;8791;50.876;4.342;2023-02-22T09:45:26;20.67;;;11.87;;
17347;SDS011;8791;50.876;4.342;2023-02-22T09:47:59;20.20;;;12.53;;
17347;SDS011;8791;50.876;4.342;2023-02-22T09:50:33;21.27;;;12.53;;
17347;SDS011;8791;50.876;4.342;2023-02-22T09:53:07;34.83;;;13.90;;
17347;SDS011;8791;50.876;4.342;2023-02-22T09:55:47;28.50;;;12.87;;
17347;SDS011;8791;50.876;4.342;2023-02-22T09:58:18;38.03;;;13.20;;
17347;SDS011;8791;50.876;4.342;2023-02-22T10:00:49;24.87;;;12.97;;
17347;SDS011;8791;50.876;4.342;2023-02-22T10:03:21;25.30;;;12.90;;
17347;SDS011;8791;50.876;4.342;2023-02-22T10:05:55;20.43;;;12.87;;
17347;SDS011;8791;50.876;4.342;2023-02-22T10:08:25;23.93;;;12.57;;
17347;SDS011;8791;50.876;4.342;2023-02-22T10:10:56;24.20;;;13.53;;
17347;SDS011;8791;50.876;4.342;2023-02-22T10:13:35;29.17;;;13.40;;
17347;SDS011;8791;50.876;4.342;2023-02-22T10:16:10;26.40;;;13.63;;
17347;SDS011;8791;50.876;4.342;2023-02-22T10:18:49;17.63;;;11.77;;
17347;SDS011;8791;50.876;4.342;2023-02-22T10:21:43;19.60;;;13.13;;
17347;SDS011;8791;50.876;4.342;2023-02-22T10:24:22;36.03;;;14.00;;
17347;SDS011;8791;50.876;4.342;2023-02-22T10:26:57;24.27;;;14.00;;
17347;SDS011;8791;50.876;4.342;2023-02-22T10:29:29;19.97;;;12.70;;
17347;SDS011;8791;50.876;4.342;2023-02-22T10:32:00;27.70;;;14.07;;
17347;SDS011;8791;50.876;4.342;2023-02-22T10:34:29;19.50;;;13.40;;
17347;SDS011;8791;50.876;4.342;2023-02-22T10:37:02;23.13;;;14.03;;
17347;SDS011;8791;50.876;4.342;2023-02-22T10:39:41;27.93;;;14.33;;
17347;SDS011;8791;50.876;4.342;2023-02-22T10:42:10;20.13;;;13.33;;
17347;SDS011;8791;50.876;4.342;2023-02-22T10:44:37;25.90;;;14.27;;
17347;SDS011;8791;50.876;4.342;2023-02-22T10:47:06;30.80;;;15.07;;
17347;SDS011;8791;50.876;4.342;2023-02-22T10:49:36;32.87;;;15.20;;
17347;SDS011;8791;50.876;4.342;2023-02-22T10:52:12;25.27;;;14.77;;
17347;SDS011;8791;50.876;4.342;2023-02-22T10:54:43;24.97;;;14.63;;
17347;SDS011;8791;50.876;4.342;2023-02-22T10:57:13;33.43;;;15.07;;
17347;SDS011;8791;50.876;4.342;2023-02-22T10:59:45;31.07;;;15.27;;
17347;SDS011;8791;50.876;4.342;2023-02-22T11:02:16;29.77;;;15.37;;
17347;SDS011;8791;50.876;4.342;2023-02-22T11:04:46;34.27;;;16.67;;
17347;SDS011;8791;50.876;4.342;2023-02-22T11:07:20;26.03;;;16.50;;
17347;SDS011;8791;50.876;4.342;2023-02-22T11:09:51;27.50;;;15.30;;
17347;SDS011;8791;50.876;4.342;2023-02-22T11:12:24;29.20;;;15.57;;
17347;SDS011;8791;50.876;4.342;2023-02-22T11:14:53;29.87;;;15.80;;
17347;SDS011;8791;50.876;4.342;2023-02-22T11:17:23;24.37;;;15.67;;
17347;SDS011;8791;50.876;4.342;2023-02-22T11:19:55;31.20;;;15.97;;
17347;SDS011;8791;50.876;4.342;2023-02-22T11:22:25;27.17;;;15.93;;
17347;SDS011;8791;50.876;4.342;2023-02-22T11:24:56;28.87;;;16.17;;
17347;SDS011;8791;50.876;4.342;2023-02-22T11:27:27;35.97;;;17.30;;
17347;SDS011;8791;50.876;4.342;2023-02-22T11:30:07;30.57;;;16.67;;
17347;SDS011;8791;50.876;4.342;2023-02-22T11:32:44;26.53;;;17.03;;
17347;SDS011;8791;50.876;4.342;2023-02-22T11:35:18;35.17;;;18.37;;
17347;SDS011;8791;50.876;4.342;2023-02-22T11:38:00;29.83;;;18.77;;
17347;SDS011;8791;50.876;4.342;2023-02-22T11:40:37;30.63;;;17.80;;
17347;SDS011;8791;50.876;4.342;2023-02-22T11:43:07;31.00;;;17.70;;
17347;SDS011;8791;50.876;4.342;2023-02-22T11:45:36;31.80;;;18.57;;
17347;SDS011;8791;50.876;4.342;2023-02-22T11:48:04;34.17;;;19.57;;
17347;SDS011;8791;50.876;4.342;2023-02-22T11:50:33;32.23;;;19.83;;
17347;SDS011;8791;50.876;4.342;2023-02-22T11:53:15;33.80;;;19.37;;
17347;SDS011;8791;50.876;4.342;2023-02-22T11:55:52;39.37;;;20.83;;
17347;SDS011;8791;50.876;4.342;2023-02-22T11:58:34;35.40;;;19.93;;
17347;SDS011;8791;50.876;4.342;2023-02-22T12:01:10;37.63;;;20.67;;
17347;SDS011;8791;50.876;4.342;2023-02-22T12:04:03;32.50;;;20.47;;
17347;SDS011;8791;50.876;4.342;2023-02-22T12:07:12;41.60;;;22.13;;
17347;SDS011;8791;50.876;4.342;2023-02-22T12:09:53;36.53;;;21.30;;
17347;SDS011;8791;50.876;4.342;2023-02-22T12:12:31;35.07;;;22.13;;
17347;SDS011;8791;50.876;4.342;2023-02-22T12:15:04;43.07;;;21.93;;
17347;SDS011;8791;50.876;4.342;2023-02-22T12:17:41;35.80;;;22.33;;
17347;SDS011;8791;50.876;4.342;2023-02-22T12:20:16;41.93;;;22.70;;
17347;SDS011;8791;50.876;4.342;2023-02-22T12:22:51;36.53;;;21.93;;
17347;SDS011;8791;50.876;4.342;2023-02-22T12:25:24;40.93;;;22.27;;
17347;SDS011;8791;50.876;4.342;2023-02-22T12:27:54;38.17;;;22.60;;
17347;SDS011;8791;50.876;4.342;2023-02-22T12:30:24;35.80;;;21.80;;
17347;SDS011;8791;50.876;4.342;2023-02-22T12:32:54;38.80;;;23.07;;
17347;SDS011;8791;50.876;4.342;2023-02-22T12:35:24;35.83;;;24.07;;
17347;SDS011;8791;50.876;4.342;2023-02-22T12:38:00;43.27;;;24.10;;
17347;SDS011;8791;50.876;4.342;2023-02-22T12:40:34;35.77;;;23.83;;
17347;SDS011;8791;50.876;4.342;2023-02-22T12:43:11;38.50;;;24.37;;
17347;SDS011;8791;50.876;4.342;2023-02-22T12:45:43;45.77;;;24.93;;
17347;SDS011;8791;50.876;4.342;2023-02-22T12:48:25;40.47;;;25.47;;
17347;SDS011;8791;50.876;4.342;2023-02-22T12:51:01;41.77;;;24.50;;
17347;SDS011;8791;50.876;4.342;2023-02-22T12:53:37;45.03;;;26.37;;
17347;SDS011;8791;50.876;4.342;2023-02-22T12:56:15;45.07;;;26.23;;
17347;SDS011;8791;50.876;4.342;2023-02-22T12:58:48;38.77;;;24.50;;
17347;SDS011;8791;50.876;4.342;2023-02-22T13:01:21;44.73;;;24.07;;
17347;SDS011;8791;50.876;4.342;2023-02-22T13:03:50;42.00;;;25.20;;
17347;SDS011;8791;50.876;4.342;2023-02-22T13:06:23;37.27;;;22.80;;
17347;SDS011;8791;50.876;4.342;2023-02-22T13:12:06;32.80;;;22.87;;
17347;SDS011;8791;50.876;4.342;2023-02-22T13:14:41;42.47;;;23.07;;
17347;SDS011;8791;50.876;4.342;2023-02-22T13:17:17;35.43;;;23.87;;
17347;SDS011;8791;50.876;4.342;2023-02-22T13:19:51;42.97;;;23.63;;
17347;SDS011;8791;50.876;4.342;2023-02-22T13:22:24;39.17;;;23.77;;
17347;SDS011;8791;50.876;4.342;2023-02-22T13:24:56;40.63;;;24.77;;
17347;SDS011;8791;50.876;4.342;2023-02-22T13:27:32;40.37;;;24.97;;
17347;SDS011;8791;50.876;4.342;2023-02-22T13:30:03;38.53;;;24.17;;
17347;SDS011;8791;50.876;4.342;2023-02-22T13:32:43;40.90;;;25.63;;
17347;SDS011;8791;50.876;4.342;2023-02-22T13:35:29;41.50;;;26.00;;
17347;SDS011;8791;50.876;4.342;2023-02-22T13:38:22;45.37;;;27.33;;
17347;SDS011;8791;50.876;4.342;2023-02-22T13:41:20;42.13;;;25.90;;
17347;SDS011;8791;50.876;4.342;2023-02-22T13:47:14;53.90;;;26.73;;
17347;SDS011;8791;50.876;4.342;2023-02-22T13:50:22;41.23;;;26.37;;
17347;SDS011;8791;50.876;4.342;2023-02-22T13:53:09;51.37;;;28.90;;
17347;SDS011;8791;50.876;4.342;2023-02-22T13:55:40;48.97;;;28.50;;
17347;SDS011;8791;50.876;4.342;2023-02-22T13:58:09;46.90;;;28.67;;
17347;SDS011;8791;50.876;4.342;2023-02-22T14:00:39;53.73;;;29.10;;
17347;SDS011;8791;50.876;4.342;2023-02-22T14:03:29;42.03;;;27.83;;
17347;SDS011;8791;50.876;4.342;2023-02-22T14:06:00;47.27;;;28.50;;
17347;SDS011;8791;50.876;4.342;2023-02-22T14:08:38;50.10;;;28.47;;
17347;SDS011;8791;50.876;4.342;2023-02-22T14:14:24;48.50;;;29.37;;
17347;SDS011;8791;50.876;4.342;2023-02-22T14:20:02;53.90;;;29.70;;
17347;SDS011;8791;50.876;4.342;2023-02-22T14:22:44;46.67;;;29.00;;
17347;SDS011;8791;50.876;4.342;2023-02-22T14:27:55;50.73;;;28.63;;
17347;SDS011;8791;50.876;4.342;2023-02-22T14:30:23;51.23;;;29.97;;
17347;SDS011;8791;50.876;4.342;2023-02-22T14:32:51;53.57;;;31.43;;
17347;SDS011;8791;50.876;4.342;2023-02-22T14:35:20;55.83;;;31.17;;
17347;SDS011;8791;50.876;4.342;2023-02-22T14:37:50;52.60;;;32.27;;
17347;SDS011;8791;50.876;4.342;2023-02-22T14:40:20;62.40;;;32.77;;
17347;SDS011;8791;50.876;4.342;2023-02-22T14:42:51;56.30;;;33.27;;
17347;SDS011;8791;50.876;4.342;2023-02-22T14:45:27;51.07;;;31.20;;
17347;SDS011;8791;50.876;4.342;2023-02-22T14:47:57;60.00;;;33.17;;
17347;SDS011;8791;50.876;4.342;2023-02-22T14:50:41;53.67;;;33.17;;
17347;SDS011;8791;50.876;4.342;2023-02-22T14:53:14;58.00;;;32.53;;
17347;SDS011;8791;50.876;4.342;2023-02-22T14:55:48;70.53;;;31.87;;
17347;SDS011;8791;50.876;4.342;2023-02-22T14:58:21;56.47;;;32.37;;
17347;SDS011;8791;50.876;4.342;2023-02-22T15:00:51;63.63;;;33.87;;
17347;SDS011;8791;50.876;4.342;2023-02-22T15:03:25;59.53;;;31.67;;
17347;SDS011;8791;50.876;4.342;2023-02-22T15:06:02;63.20;;;32.37;;
17347;SDS011;8791;50.876;4.342;2023-02-22T15:08:30;67.73;;;34.67;;
17347;SDS011;8791;50.876;4.342;2023-02-22T15:10:58;56.67;;;32.30;;
17347;SDS011;8791;50.876;4.342;2023-02-22T15:13:27;59.07;;;32.37;;
17347;SDS011;8791;50.876;4.342;2023-02-22T15:15:57;61.77;;;33.27;;